Shamrock Jupiter — 3FXP2 — position and weather

sailwx.info

Track history (hours):
 
Tides and Currents Weather Stations Pressure Air Temp Water Temp Dewpoint Dewpoint Depression Visibility Wind Speed Wind Dir Waves Ship Positions

Shamrock Jupiter

Last reported at 2018-Jun-16 23:41 UTC. Time now 2018-Jun-23 10:23 UTC.
Position N 09°11' W 079°52'.

Length 146 m; draft 6.6 m.

Type: Ship (hazmat cat B). MMSI: 370999000.

Date/timePositionNaut miles runAvg speedWind from/ knotsBaromVisibWave heightAir tempDewpointWater temp
2018-Jun-16 23:41N 09°11' W 079°52'211.7
2018-Jun-16 23:30N 09°12' W 079°54'4 9.1
2018-Jun-16 23:00N 09°16' W 079°55'1 1.1
2018-Jun-16 22:30N 09°16' W 079°55'0 0.3
2018-Jun-16 21:59N 09°17' W 079°55'1 1.1
2018-Jun-16 21:29N 09°17' W 079°55'3 7.2
2018-Jun-16 21:00N 09°21' W 079°55'2 3.2
2018-Jun-16 20:28N 09°22' W 079°56'0 0.1
2018-Jun-16 19:58N 09°22' W 079°56'0 0.1
2018-Jun-16 19:28N 09°22' W 079°56'0 0.0
2018-Jun-16 18:58N 09°22' W 079°56'0 0.0
2018-Jun-16 18:28N 09°22' W 079°56'0 0.0
2018-Jun-16 17:58N 09°22' W 079°56'0 0.1
2018-Jun-16 17:28N 09°22' W 079°56'0 0.1
2018-Jun-16 16:58N 09°22' W 079°56'0 0.1
2018-Jun-16 16:28N 09°22' W 079°56'0 0.1
2018-Jun-16 15:58N 09°22' W 079°56'0 0.1
2018-Jun-16 15:28N 09°22' W 079°56'0 0.1
2018-Jun-16 14:58N 09°22' W 079°56'0 0.0
2018-Jun-16 14:28N 09°22' W 079°56'0 0.0
2018-Jun-16 13:58N 09°22' W 079°56'0 0.0
2018-Jun-16 13:28N 09°22' W 079°56'0 0.0
2018-Jun-16 12:58N 09°22' W 079°56'0 0.1
2018-Jun-16 12:28N 09°22' W 079°56'0 0.0
2018-Jun-16 11:58N 09°22' W 079°56'0 0.0
2018-Jun-16 11:28N 09°22' W 079°56'0 0.0
2018-Jun-16 10:58N 09°22' W 079°56'0 0.0
2018-Jun-16 10:28N 09°22' W 079°56'0 0.1
2018-Jun-16 09:58N 09°22' W 079°56'0 0.0
2018-Jun-16 09:28N 09°22' W 079°56'0 0.0
2018-Jun-16 08:58N 09°22' W 079°56'0 0.0
2018-Jun-16 08:28N 09°22' W 079°56'0 0.0
2018-Jun-16 07:58N 09°22' W 079°56'0 0.1
2018-Jun-16 07:28N 09°22' W 079°56'0 0.0
2018-Jun-16 06:58N 09°22' W 079°56'0 0.0
2018-Jun-16 06:28N 09°22' W 079°56'0 0.0
2018-Jun-16 05:58N 09°22' W 079°56'0 0.1
2018-Jun-16 05:25N 09°22' W 079°56'0 0.0
2018-Jun-16 04:58N 09°22' W 079°56'0 0.0
2018-Jun-16 04:26N 09°22' W 079°56'0 0.0
2018-Jun-16 03:58N 09°22' W 079°56'0 0.0
2018-Jun-16 03:28N 09°22' W 079°56'0 0.0
2018-Jun-16 02:58N 09°22' W 079°56'0 0.1
2018-Jun-16 02:28N 09°22' W 079°56'0 0.1
2018-Jun-16 01:58N 09°22' W 079°56'0 0.1
2018-Jun-16 01:28N 09°22' W 079°56'0 0.0
2018-Jun-16 00:58N 09°22' W 079°56'0 0.1
2018-Jun-16 00:28N 09°22' W 079°56'0 0.1
2018-Jun-15 23:58N 09°22' W 079°56'0 0.0
2018-Jun-15 23:28N 09°22' W 079°56'0 0.0
2018-Jun-15 22:58N 09°22' W 079°56'0 0.0
2018-Jun-15 22:22N 09°22' W 079°56'0 0.0
2018-Jun-15 21:58N 09°22' W 079°56'0 0.0
2018-Jun-15 21:28N 09°22' W 079°56'0 0.1
2018-Jun-15 20:58N 09°22' W 079°56'0 0.1
2018-Jun-15 20:28N 09°22' W 079°56'0 0.1
2018-Jun-15 19:46N 09°22' W 079°56'0 0.1
2018-Jun-15 19:28N 09°22' W 079°56'0 0.1
2018-Jun-15 18:55N 09°22' W 079°56'0 0.0
2018-Jun-15 18:25N 09°22' W 079°56'0 0.0
2018-Jun-15 17:58N 09°22' W 079°56'0 0.0
2018-Jun-15 17:28N 09°22' W 079°56'0 0.0
2018-Jun-15 16:58N 09°22' W 079°56'0 0.0
2018-Jun-15 16:28N 09°22' W 079°56'0 0.0
2018-Jun-15 15:58N 09°22' W 079°56'0 0.0
2018-Jun-15 15:28N 09°22' W 079°56'0 0.0
2018-Jun-15 14:58N 09°22' W 079°56'0 0.0
2018-Jun-15 14:28N 09°22' W 079°56'0 0.1
2018-Jun-15 13:58N 09°22' W 079°56'0 0.0
2018-Jun-15 13:28N 09°22' W 079°56'0 0.1
2018-Jun-15 12:58N 09°22' W 079°56'0 0.1
2018-Jun-15 12:28N 09°22' W 079°56'1 1.9
2018-Jun-15 12:00N 09°23' W 079°55'2 3.9
2018-Jun-15 11:30N 09°25' W 079°55'  
Track history (hours):
 
Tides and Currents Weather Stations Pressure Air Temp Water Temp Dewpoint Dewpoint Depression Visibility Wind Speed Wind Dir Waves Ship Positions

Shamrock Jupiter

Last reported at 2018-Jun-16 23:41 UTC. Time now 2018-Jun-23 10:23 UTC.
Position N 09°11' W 079°52'.

Length 146 m; draft 6.6 m.

Type: Ship (hazmat cat B). MMSI: 370999000.

Date/timePositionNaut miles runAvg speedWind from/ knotsBaromVisibWave heightAir tempDewpointWater temp
2018-Jun-16 23:41N 09°11' W 079°52'211.7
2018-Jun-16 23:30N 09°12' W 079°54'4 9.1
2018-Jun-16 23:00N 09°16' W 079°55'1 1.1
2018-Jun-16 22:30N 09°16' W 079°55'0 0.3
2018-Jun-16 21:59N 09°17' W 079°55'1 1.1
2018-Jun-16 21:29N 09°17' W 079°55'3 7.2
2018-Jun-16 21:00N 09°21' W 079°55'2 3.2
2018-Jun-16 20:28N 09°22' W 079°56'0 0.1
2018-Jun-16 19:58N 09°22' W 079°56'0 0.1
2018-Jun-16 19:28N 09°22' W 079°56'0 0.0
2018-Jun-16 18:58N 09°22' W 079°56'0 0.0
2018-Jun-16 18:28N 09°22' W 079°56'0 0.0
2018-Jun-16 17:58N 09°22' W 079°56'0 0.1
2018-Jun-16 17:28N 09°22' W 079°56'0 0.1
2018-Jun-16 16:58N 09°22' W 079°56'0 0.1
2018-Jun-16 16:28N 09°22' W 079°56'0 0.1
2018-Jun-16 15:58N 09°22' W 079°56'0 0.1
2018-Jun-16 15:28N 09°22' W 079°56'0 0.1
2018-Jun-16 14:58N 09°22' W 079°56'0 0.0
2018-Jun-16 14:28N 09°22' W 079°56'0 0.0
2018-Jun-16 13:58N 09°22' W 079°56'0 0.0
2018-Jun-16 13:28N 09°22' W 079°56'0 0.0
2018-Jun-16 12:58N 09°22' W 079°56'0 0.1
2018-Jun-16 12:28N 09°22' W 079°56'0 0.0
2018-Jun-16 11:58N 09°22' W 079°56'0 0.0
2018-Jun-16 11:28N 09°22' W 079°56'0 0.0
2018-Jun-16 10:58N 09°22' W 079°56'0 0.0
2018-Jun-16 10:28N 09°22' W 079°56'0 0.1
2018-Jun-16 09:58N 09°22' W 079°56'0 0.0
2018-Jun-16 09:28N 09°22' W 079°56'0 0.0
2018-Jun-16 08:58N 09°22' W 079°56'0 0.0
2018-Jun-16 08:28N 09°22' W 079°56'0 0.0
2018-Jun-16 07:58N 09°22' W 079°56'0 0.1
2018-Jun-16 07:28N 09°22' W 079°56'0 0.0
2018-Jun-16 06:58N 09°22' W 079°56'0 0.0
2018-Jun-16 06:28N 09°22' W 079°56'0 0.0
2018-Jun-16 05:58N 09°22' W 079°56'0 0.1
2018-Jun-16 05:25N 09°22' W 079°56'0 0.0
2018-Jun-16 04:58N 09°22' W 079°56'0 0.0
2018-Jun-16 04:26N 09°22' W 079°56'0 0.0
2018-Jun-16 03:58N 09°22' W 079°56'0 0.0
2018-Jun-16 03:28N 09°22' W 079°56'0 0.0
2018-Jun-16 02:58N 09°22' W 079°56'0 0.1
2018-Jun-16 02:28N 09°22' W 079°56'0 0.1
2018-Jun-16 01:58N 09°22' W 079°56'0 0.1
2018-Jun-16 01:28N 09°22' W 079°56'0 0.0
2018-Jun-16 00:58N 09°22' W 079°56'0 0.1
2018-Jun-16 00:28N 09°22' W 079°56'0 0.1
2018-Jun-15 23:58N 09°22' W 079°56'0 0.0
2018-Jun-15 23:28N 09°22' W 079°56'0 0.0
2018-Jun-15 22:58N 09°22' W 079°56'0 0.0
2018-Jun-15 22:22N 09°22' W 079°56'0 0.0
2018-Jun-15 21:58N 09°22' W 079°56'0 0.0
2018-Jun-15 21:28N 09°22' W 079°56'0 0.1
2018-Jun-15 20:58N 09°22' W 079°56'0 0.1
2018-Jun-15 20:28N 09°22' W 079°56'0 0.1
2018-Jun-15 19:46N 09°22' W 079°56'0 0.1
2018-Jun-15 19:28N 09°22' W 079°56'0 0.1
2018-Jun-15 18:55N 09°22' W 079°56'0 0.0
2018-Jun-15 18:25N 09°22' W 079°56'0 0.0
2018-Jun-15 17:58N 09°22' W 079°56'0 0.0
2018-Jun-15 17:28N 09°22' W 079°56'0 0.0
2018-Jun-15 16:58N 09°22' W 079°56'0 0.0
2018-Jun-15 16:28N 09°22' W 079°56'0 0.0
2018-Jun-15 15:58N 09°22' W 079°56'0 0.0
2018-Jun-15 15:28N 09°22' W 079°56'0 0.0
2018-Jun-15 14:58N 09°22' W 079°56'0 0.0
2018-Jun-15 14:28N 09°22' W 079°56'0 0.1
2018-Jun-15 13:58N 09°22' W 079°56'0 0.0
2018-Jun-15 13:28N 09°22' W 079°56'0 0.1
2018-Jun-15 12:58N 09°22' W 079°56'0 0.1
2018-Jun-15 12:28N 09°22' W 079°56'1 1.9
2018-Jun-15 12:00N 09°23' W 079°55'2 3.9
2018-Jun-15 11:30N 09°25' W 079°55'  

Dump ship's entire track history